sensor_id;sensor_type;location;lat;lon;timestamp;temperature;humidity
63966;DHT22;50151;52.030;5.350;2022-09-03T06:35:01;17.10;55.40
63966;DHT22;50151;52.030;5.350;2022-09-03T06:37:27;17.20;54.70
63966;DHT22;50151;52.030;5.350;2022-09-03T06:39:54;17.30;53.80
63966;DHT22;50151;52.030;5.350;2022-09-03T06:42:21;17.40;54.10
63966;DHT22;50151;52.030;5.350;2022-09-03T06:44:49;17.40;54.20
63966;DHT22;50151;52.030;5.350;2022-09-03T06:47:17;17.40;53.40
63966;DHT22;50151;52.030;5.350;2022-09-03T06:49:43;17.50;53.40
63966;DHT22;50151;52.030;5.350;2022-09-03T06:52:10;17.60;53.40
63966;DHT22;50151;52.030;5.350;2022-09-03T06:54:37;17.70;53.10
63966;DHT22;50151;52.030;5.350;2022-09-03T06:57:06;17.70;53.50
63966;DHT22;50151;52.030;5.350;2022-09-03T06:59:33;17.80;53.80
63966;DHT22;50151;52.030;5.350;2022-09-03T07:02:00;17.90;53.30
63966;DHT22;50151;52.030;5.350;2022-09-03T07:04:29;18.00;52.10
63966;DHT22;50151;52.030;5.350;2022-09-03T07:06:59;18.00;52.60
63966;DHT22;50151;52.030;5.350;2022-09-03T07:09:26;18.10;52.30
63966;DHT22;50151;52.030;5.350;2022-09-03T07:11:53;18.20;51.10
63966;DHT22;50151;52.030;5.350;2022-09-03T07:14:20;18.30;50.50
63966;DHT22;50151;52.030;5.350;2022-09-03T07:16:48;18.40;50.20
63966;DHT22;50151;52.030;5.350;2022-09-03T07:19:15;18.40;50.10
63966;DHT22;50151;52.030;5.350;2022-09-03T07:21:43;18.50;49.90
63966;DHT22;50151;52.030;5.350;2022-09-03T07:24:16;18.50;49.70
63966;DHT22;50151;52.030;5.350;2022-09-03T07:26:43;18.60;49.50
63966;DHT22;50151;52.030;5.350;2022-09-03T07:29:12;18.60;50.00
63966;DHT22;50151;52.030;5.350;2022-09-03T07:31:41;18.70;49.00
63966;DHT22;50151;52.030;5.350;2022-09-03T07:34:11;18.80;49.20
63966;DHT22;50151;52.030;5.350;2022-09-03T07:36:43;18.90;49.00
63966;DHT22;50151;52.030;5.350;2022-09-03T07:39:15;19.00;48.60
63966;DHT22;50151;52.030;5.350;2022-09-03T07:41:44;19.00;49.00
63966;DHT22;50151;52.030;5.350;2022-09-03T07:44:12;19.10;48.10
63966;DHT22;50151;52.030;5.350;2022-09-03T07:46:41;19.00;48.00
63966;DHT22;50151;52.030;5.350;2022-09-03T07:49:09;19.10;48.30
63966;DHT22;50151;52.030;5.350;2022-09-03T07:51:38;19.20;48.40
63966;DHT22;50151;52.030;5.350;2022-09-03T07:54:07;19.20;48.30
63966;DHT22;50151;52.030;5.350;2022-09-03T07:56:38;19.20;48.10
63966;DHT22;50151;52.030;5.350;2022-09-03T07:59:06;19.40;48.30
63966;DHT22;50151;52.030;5.350;2022-09-03T08:01:34;19.40;48.70
63966;DHT22;50151;52.030;5.350;2022-09-03T08:04:05;19.40;47.40
63966;DHT22;50151;52.030;5.350;2022-09-03T08:06:35;19.50;48.10
63966;DHT22;50151;52.030;5.350;2022-09-03T08:09:05;19.50;47.80
63966;DHT22;50151;52.030;5.350;2022-09-03T08:11:36;19.60;47.90
63966;DHT22;50151;52.030;5.350;2022-09-03T08:14:06;19.70;47.60
63966;DHT22;50151;52.030;5.350;2022-09-03T08:16:38;19.70;46.80
63966;DHT22;50151;52.030;5.350;2022-09-03T08:19:07;19.80;48.00
63966;DHT22;50151;52.030;5.350;2022-09-03T08:21:35;19.80;47.60
63966;DHT22;50151;52.030;5.350;2022-09-03T08:24:02;19.90;47.50
63966;DHT22;50151;52.030;5.350;2022-09-03T08:26:31;20.00;47.60
63966;DHT22;50151;52.030;5.350;2022-09-03T08:28:59;20.00;47.60
63966;DHT22;50151;52.030;5.350;2022-09-03T08:31:27;20.00;47.20
63966;DHT22;50151;52.030;5.350;2022-09-03T08:33:57;20.10;47.40
63966;DHT22;50151;52.030;5.350;2022-09-03T08:36:27;20.10;47.30
63966;DHT22;50151;52.030;5.350;2022-09-03T08:38:59;20.10;47.10
63966;DHT22;50151;52.030;5.350;2022-09-03T08:44:33;20.40;46.80
63966;DHT22;50151;52.030;5.350;2022-09-03T08:52:49;20.80;46.90
63966;DHT22;50151;52.030;5.350;2022-09-03T08:55:26;20.80;46.50
63966;DHT22;50151;52.030;5.350;2022-09-03T09:03:17;20.90;46.80
63966;DHT22;50151;52.030;5.350;2022-09-03T09:06:05;21.10;46.60
63966;DHT22;50151;52.030;5.350;2022-09-03T09:08:41;21.20;46.30
63966;DHT22;50151;52.030;5.350;2022-09-03T09:11:23;21.30;45.20
63966;DHT22;50151;52.030;5.350;2022-09-03T09:14:02;21.40;45.80
63966;DHT22;50151;52.030;5.350;2022-09-03T09:16:42;21.40;45.60
63966;DHT22;50151;52.030;5.350;2022-09-03T09:19:38;21.50;45.30
63966;DHT22;50151;52.030;5.350;2022-09-03T09:22:23;21.70;45.40
63966;DHT22;50151;52.030;5.350;2022-09-03T09:24:53;21.80;45.40
63966;DHT22;50151;52.030;5.350;2022-09-03T09:27:23;21.80;45.40
63966;DHT22;50151;52.030;5.350;2022-09-03T09:29:51;21.90;44.80
63966;DHT22;50151;52.030;5.350;2022-09-03T09:32:19;22.00;44.60
63966;DHT22;50151;52.030;5.350;2022-09-03T09:34:47;22.20;44.50
63966;DHT22;50151;52.030;5.350;2022-09-03T09:37:18;22.30;44.90
63966;DHT22;50151;52.030;5.350;2022-09-03T09:39:57;22.50;44.70
63966;DHT22;50151;52.030;5.350;2022-09-03T09:42:25;22.60;44.40
63966;DHT22;50151;52.030;5.350;2022-09-03T09:44:52;22.70;42.60
63966;DHT22;50151;52.030;5.350;2022-09-03T09:47:27;22.70;42.70
63966;DHT22;50151;52.030;5.350;2022-09-03T09:49:57;22.90;43.90
63966;DHT22;50151;52.030;5.350;2022-09-03T09:52:26;22.90;43.20
63966;DHT22;50151;52.030;5.350;2022-09-03T09:55:15;23.10;43.00
63966;DHT22;50151;52.030;5.350;2022-09-03T09:57:44;23.20;42.70
63966;DHT22;50151;52.030;5.350;2022-09-03T10:00:15;23.20;41.80
63966;DHT22;50151;52.030;5.350;2022-09-03T10:02:53;23.20;41.80
63966;DHT22;50151;52.030;5.350;2022-09-03T10:05:23;23.40;42.20
63966;DHT22;50151;52.030;5.350;2022-09-03T10:08:18;23.60;41.70
63966;DHT22;50151;52.030;5.350;2022-09-03T10:10:50;23.80;41.40
63966;DHT22;50151;52.030;5.350;2022-09-03T10:13:18;23.80;40.00
63966;DHT22;50151;52.030;5.350;2022-09-03T10:16:09;23.80;40.40
63966;DHT22;50151;52.030;5.350;2022-09-03T10:18:42;24.00;40.40
63966;DHT22;50151;52.030;5.350;2022-09-03T10:21:31;24.20;39.60
63966;DHT22;50151;52.030;5.350;2022-09-03T10:24:34;24.20;38.90
63966;DHT22;50151;52.030;5.350;2022-09-03T10:27:09;24.30;38.60
63966;DHT22;50151;52.030;5.350;2022-09-03T10:29:39;24.30;39.50
63966;DHT22;50151;52.030;5.350;2022-09-03T10:35:31;24.40;39.90
63966;DHT22;50151;52.030;5.350;2022-09-03T10:38:24;24.60;39.00
63966;DHT22;50151;52.030;5.350;2022-09-03T10:44:20;24.70;39.60
63966;DHT22;50151;52.030;5.350;2022-09-03T10:47:02;24.80;37.50
63966;DHT22;50151;52.030;5.350;2022-09-03T10:55:47;25.20;39.10
63966;DHT22;50151;52.030;5.350;2022-09-03T11:01:13;25.10;37.80
63966;DHT22;50151;52.030;5.350;2022-09-03T11:03:46;25.20;37.90
63966;DHT22;50151;52.030;5.350;2022-09-03T11:06:24;25.20;37.50
63966;DHT22;50151;52.030;5.350;2022-09-03T11:14:39;25.60;36.50
63966;DHT22;50151;52.030;5.350;2022-09-03T11:17:12;25.70;36.50
63966;DHT22;50151;52.030;5.350;2022-09-03T11:19:54;25.70;36.60
63966;DHT22;50151;52.030;5.350;2022-09-03T11:22:23;25.80;36.80
63966;DHT22;50151;52.030;5.350;2022-09-03T11:24:57;25.90;36.80
63966;DHT22;50151;52.030;5.350;2022-09-03T11:30:46;25.90;36.60
63966;DHT22;50151;52.030;5.350;2022-09-03T11:33:20;26.10;36.50
63966;DHT22;50151;52.030;5.350;2022-09-03T11:35:58;26.30;36.30
63966;DHT22;50151;52.030;5.350;2022-09-03T11:38:28;26.50;36.80
63966;DHT22;50151;52.030;5.350;2022-09-03T11:43:32;26.40;35.40
63966;DHT22;50151;52.030;5.350;2022-09-03T11:48:36;26.70;36.20
63966;DHT22;50151;52.030;5.350;2022-09-03T11:51:20;26.60;35.80
63966;DHT22;50151;52.030;5.350;2022-09-03T11:53:59;26.50;35.20
63966;DHT22;50151;52.030;5.350;2022-09-03T11:56:30;26.40;34.70
63966;DHT22;50151;52.030;5.350;2022-09-03T11:59:21;26.50;35.60
63966;DHT22;50151;52.030;5.350;2022-09-03T12:02:30;26.50;35.50
63966;DHT22;50151;52.030;5.350;2022-09-03T12:08:14;26.90;34.80
63966;DHT22;50151;52.030;5.350;2022-09-03T12:19:50;27.10;34.60
63966;DHT22;50151;52.030;5.350;2022-09-03T12:22:20;27.40;34.50
63966;DHT22;50151;52.030;5.350;2022-09-03T12:24:48;27.20;34.40
63966;DHT22;50151;52.030;5.350;2022-09-03T12:27:26;27.30;33.60
63966;DHT22;50151;52.030;5.350;2022-09-03T12:30:00;27.70;34.60
63966;DHT22;50151;52.030;5.350;2022-09-03T12:32:34;27.50;33.10
63966;DHT22;50151;52.030;5.350;2022-09-03T12:35:17;27.80;32.80
63966;DHT22;50151;52.030;5.350;2022-09-03T12:38:05;27.70;32.60
63966;DHT22;50151;52.030;5.350;2022-09-03T12:40:41;28.10;33.10
63966;DHT22;50151;52.030;5.350;2022-09-03T12:43:29;28.40;32.80
63966;DHT22;50151;52.030;5.350;2022-09-03T12:46:13;28.10;32.40
63966;DHT22;50151;52.030;5.350;2022-09-03T12:49:01;28.20;32.60
63966;DHT22;50151;52.030;5.350;2022-09-03T12:52:02;28.70;32.30
63966;DHT22;50151;52.030;5.350;2022-09-03T12:54:33;29.00;32.20
63966;DHT22;50151;52.030;5.350;2022-09-03T12:57:03;29.20;32.50
63966;DHT22;50151;52.030;5.350;2022-09-03T12:59:32;29.30;31.30
63966;DHT22;50151;52.030;5.350;2022-09-03T13:02:13;29.50;32.10
63966;DHT22;50151;52.030;5.350;2022-09-03T13:04:42;29.50;31.30
63966;DHT22;50151;52.030;5.350;2022-09-03T13:07:23;29.70;30.90
63966;DHT22;50151;52.030;5.350;2022-09-03T13:09:51;29.70;30.50
63966;DHT22;50151;52.030;5.350;2022-09-03T13:12:41;29.80;30.70
63966;DHT22;50151;52.030;5.350;2022-09-03T13:15:17;29.40;30.30
63966;DHT22;50151;52.030;5.350;2022-09-03T13:18:09;30.10;30.50
63966;DHT22;50151;52.030;5.350;2022-09-03T13:23:31;30.30;30.90
63966;DHT22;50151;52.030;5.350;2022-09-03T13:26:35;30.50;29.80
63966;DHT22;50151;52.030;5.350;2022-09-03T13:29:18;30.50;29.60
63966;DHT22;50151;52.030;5.350;2022-09-03T13:31:52;30.40;29.90
63966;DHT22;50151;52.030;5.350;2022-09-03T13:34:32;30.80;29.50
63966;DHT22;50151;52.030;5.350;2022-09-03T13:37:30;31.10;29.70
63966;DHT22;50151;52.030;5.350;2022-09-03T13:40:12;31.10;29.40
63966;DHT22;50151;52.030;5.350;2022-09-03T13:42:44;31.20;29.60
63966;DHT22;50151;52.030;5.350;2022-09-03T13:45:34;31.10;29.10
63966;DHT22;50151;52.030;5.350;2022-09-03T13:48:14;31.10;29.70
63966;DHT22;50151;52.030;5.350;2022-09-03T13:51:08;31.30;29.60
63966;DHT22;50151;52.030;5.350;2022-09-03T13:54:11;31.60;28.60
63966;DHT22;50151;52.030;5.350;2022-09-03T13:57:03;31.20;29.10
63966;DHT22;50151;52.030;5.350;2022-09-03T13:59:49;31.50;28.70
63966;DHT22;50151;52.030;5.350;2022-09-03T14:05:18;32.00;28.50
63966;DHT22;50151;52.030;5.350;2022-09-03T14:08:07;31.70;27.70
63966;DHT22;50151;52.030;5.350;2022-09-03T14:16:39;32.10;27.60
63966;DHT22;50151;52.030;5.350;2022-09-03T14:21:58;32.40;26.90
63966;DHT22;50151;52.030;5.350;2022-09-03T14:24:43;32.70;27.00
63966;DHT22;50151;52.030;5.350;2022-09-03T14:27:26;32.70;26.40
63966;DHT22;50151;52.030;5.350;2022-09-03T14:30:03;32.70;26.90
63966;DHT22;50151;52.030;5.350;2022-09-03T14:41:57;32.70;25.90
63966;DHT22;50151;52.030;5.350;2022-09-03T14:44:17;32.40;26.00
63966;DHT22;50151;52.030;5.350;2022-09-03T14:53:05;32.60;26.00
63966;DHT22;50151;52.030;5.350;2022-09-03T14:55:54;32.40;26.20
63966;DHT22;50151;52.030;5.350;2022-09-03T14:58:46;32.30;26.80
63966;DHT22;50151;52.030;5.350;2022-09-03T15:01:17;31.70;26.90
63966;DHT22;50151;52.030;5.350;2022-09-03T15:06:42;31.50;27.50
63966;DHT22;50151;52.030;5.350;2022-09-03T15:11:50;31.40;27.60
63966;DHT22;50151;52.030;5.350;2022-09-03T15:14:53;31.20;27.30
63966;DHT22;50151;52.030;5.350;2022-09-03T15:27:52;31.10;28.40
63966;DHT22;50151;52.030;5.350;2022-09-03T15:30:24;30.90;28.10
63966;DHT22;50151;52.030;5.350;2022-09-03T15:33:14;30.60;28.40
63966;DHT22;50151;52.030;5.350;2022-09-03T15:44:16;30.30;28.60
63966;DHT22;50151;52.030;5.350;2022-09-03T15:46:53;30.20;28.40
63966;DHT22;50151;52.030;5.350;2022-09-03T15:49:47;30.20;28.70
63966;DHT22;50151;52.030;5.350;2022-09-03T16:00:21;30.20;28.80
63966;DHT22;50151;52.030;5.350;2022-09-03T16:03:05;30.20;27.90
63966;DHT22;50151;52.030;5.350;2022-09-03T16:05:45;30.00;28.70
63966;DHT22;50151;52.030;5.350;2022-09-03T16:15:04;29.70;28.40
63966;DHT22;50151;52.030;5.350;2022-09-03T16:17:43;29.60;29.20
63966;DHT22;50151;52.030;5.350;2022-09-03T16:23:10;29.10;29.50
63966;DHT22;50151;52.030;5.350;2022-09-03T16:26:32;29.10;29.00
63966;DHT22;50151;52.030;5.350;2022-09-03T16:31:33;28.90;29.10
63966;DHT22;50151;52.030;5.350;2022-09-03T16:40:11;28.80;30.40
63966;DHT22;50151;52.030;5.350;2022-09-03T16:42:46;28.70;30.20
63966;DHT22;50151;52.030;5.350;2022-09-03T16:48:26;28.60;31.70
63966;DHT22;50151;52.030;5.350;2022-09-03T16:51:09;28.50;31.00
63966;DHT22;50151;52.030;5.350;2022-09-03T16:56:30;28.40;31.60
63966;DHT22;50151;52.030;5.350;2022-09-03T16:59:27;28.30;33.00
63966;DHT22;50151;52.030;5.350;2022-09-03T17:02:24;28.20;33.50
63966;DHT22;50151;52.030;5.350;2022-09-03T17:10:42;28.20;33.20
63966;DHT22;50151;52.030;5.350;2022-09-03T17:13:34;28.10;32.90
63966;DHT22;50151;52.030;5.350;2022-09-03T17:24:42;27.80;37.90
63966;DHT22;50151;52.030;5.350;2022-09-03T17:27:23;27.60;38.40
63966;DHT22;50151;52.030;5.350;2022-09-03T17:30:04;27.40;39.10
63966;DHT22;50151;52.030;5.350;2022-09-03T17:35:19;27.30;39.70
63966;DHT22;50151;52.030;5.350;2022-09-03T17:37:58;27.20;38.80
63966;DHT22;50151;52.030;5.350;2022-09-03T17:43:21;26.90;40.70
63966;DHT22;50151;52.030;5.350;2022-09-03T17:45:52;26.70;40.60
63966;DHT22;50151;52.030;5.350;2022-09-03T17:48:29;26.60;40.60
63966;DHT22;50151;52.030;5.350;2022-09-03T17:53:45;26.50;42.00
63966;DHT22;50151;52.030;5.350;2022-09-03T17:56:34;26.20;41.20
63966;DHT22;50151;52.030;5.350;2022-09-03T18:04:48;25.80;42.40
63966;DHT22;50151;52.030;5.350;2022-09-03T18:16:08;25.30;42.20
63966;DHT22;50151;52.030;5.350;2022-09-03T18:18:42;25.20;43.40
63966;DHT22;50151;52.030;5.350;2022-09-03T18:21:24;25.00;43.80
63966;DHT22;50151;52.030;5.350;2022-09-03T18:24:34;25.00;44.20
63966;DHT22;50151;52.030;5.350;2022-09-03T18:30:18;24.70;44.80
63966;DHT22;50151;52.030;5.350;2022-09-03T18:33:04;24.60;45.40
63966;DHT22;50151;52.030;5.350;2022-09-03T18:35:50;24.50;45.80
63966;DHT22;50151;52.030;5.350;2022-09-03T18:38:37;24.40;46.20
63966;DHT22;50151;52.030;5.350;2022-09-03T18:54:01;23.70;46.10
63966;DHT22;50151;52.030;5.350;2022-09-03T18:56:53;23.50;46.10
63966;DHT22;50151;52.030;5.350;2022-09-03T18:59:54;23.40;46.20
63966;DHT22;50151;52.030;5.350;2022-09-03T19:15:16;23.00;47.30
63966;DHT22;50151;52.030;5.350;2022-09-03T19:24:05;22.70;47.70
63966;DHT22;50151;52.030;5.350;2022-09-03T19:30:32;22.60;48.30
63966;DHT22;50151;52.030;5.350;2022-09-03T19:37:12;22.40;48.30
63966;DHT22;50151;52.030;5.350;2022-09-03T19:40:10;22.30;48.50
63966;DHT22;50151;52.030;5.350;2022-09-03T19:46:12;22.20;49.30
63966;DHT22;50151;52.030;5.350;2022-09-03T19:49:22;22.00;49.70
63966;DHT22;50151;52.030;5.350;2022-09-03T19:52:29;22.00;50.10
63966;DHT22;50151;52.030;5.350;2022-09-03T19:55:20;21.90;49.80
63966;DHT22;50151;52.030;5.350;2022-09-03T19:58:10;21.80;50.50
63966;DHT22;50151;52.030;5.350;2022-09-03T20:01:10;21.80;50.90
63966;DHT22;50151;52.030;5.350;2022-09-03T20:03:59;21.80;51.00
63966;DHT22;50151;52.030;5.350;2022-09-03T20:06:45;21.70;51.30
63966;DHT22;50151;52.030;5.350;2022-09-03T20:09:38;21.70;51.30
63966;DHT22;50151;52.030;5.350;2022-09-03T20:12:28;21.60;51.50
63966;DHT22;50151;52.030;5.350;2022-09-03T20:14:58;21.60;52.00
63966;DHT22;50151;52.030;5.350;2022-09-03T20:20:31;21.50;52.00
63966;DHT22;50151;52.030;5.350;2022-09-03T20:23:14;21.40;52.60
63966;DHT22;50151;52.030;5.350;2022-09-03T20:37:27;21.10;54.40
63966;DHT22;50151;52.030;5.350;2022-09-03T20:45:32;20.90;55.00
63966;DHT22;50151;52.030;5.350;2022-09-03T20:50:59;20.80;55.70
63966;DHT22;50151;52.030;5.350;2022-09-03T20:59:17;20.70;55.80
63966;DHT22;50151;52.030;5.350;2022-09-03T21:01:52;20.70;56.30
63966;DHT22;50151;52.030;5.350;2022-09-03T21:04:47;20.70;56.60
63966;DHT22;50151;52.030;5.350;2022-09-03T21:15:22;20.40;57.70
63966;DHT22;50151;52.030;5.350;2022-09-03T21:18:32;20.40;58.10
63966;DHT22;50151;52.030;5.350;2022-09-03T21:21:03;20.40;57.90
63966;DHT22;50151;52.030;5.350;2022-09-03T21:24:05;20.30;58.30
63966;DHT22;50151;52.030;5.350;2022-09-03T21:26:37;20.30;58.30
63966;DHT22;50151;52.030;5.350;2022-09-03T21:29:28;20.30;58.60
63966;DHT22;50151;52.030;5.350;2022-09-03T21:32:03;20.20;58.60
63966;DHT22;50151;52.030;5.350;2022-09-03T21:34:39;20.20;59.10
63966;DHT22;50151;52.030;5.350;2022-09-03T21:37:10;20.10;59.50
63966;DHT22;50151;52.030;5.350;2022-09-03T21:39:52;20.10;59.70
63966;DHT22;50151;52.030;5.350;2022-09-03T21:42:32;20.10;59.90
63966;DHT22;50151;52.030;5.350;2022-09-03T21:45:24;20.00;60.10
63966;DHT22;50151;52.030;5.350;2022-09-03T21:47:56;19.90;60.10
63966;DHT22;50151;52.030;5.350;2022-09-03T21:50:35;19.90;60.20
63966;DHT22;50151;52.030;5.350;2022-09-03T21:53:17;19.90;60.50
63966;DHT22;50151;52.030;5.350;2022-09-03T21:56:07;19.90;60.30
63966;DHT22;50151;52.030;5.350;2022-09-03T21:59:10;19.90;60.40
63966;DHT22;50151;52.030;5.350;2022-09-03T22:04:18;19.80;60.80
63966;DHT22;50151;52.030;5.350;2022-09-03T22:07:04;19.90;60.70
63966;DHT22;50151;52.030;5.350;2022-09-03T22:10:07;19.80;60.80
63966;DHT22;50151;52.030;5.350;2022-09-03T22:13:20;19.70;60.90
63966;DHT22;50151;52.030;5.350;2022-09-03T22:15:49;19.70;61.40
63966;DHT22;50151;52.030;5.350;2022-09-03T22:18:29;19.70;61.70
63966;DHT22;50151;52.030;5.350;2022-09-03T22:21:18;19.60;62.00
63966;DHT22;50151;52.030;5.350;2022-09-03T22:27:08;19.50;62.40
63966;DHT22;50151;52.030;5.350;2022-09-03T22:29:39;19.50;62.70
63966;DHT22;50151;52.030;5.350;2022-09-03T22:32:42;19.40;63.00
63966;DHT22;50151;52.030;5.350;2022-09-03T22:37:53;19.40;62.70
63966;DHT22;50151;52.030;5.350;2022-09-03T22:46:14;19.10;63.40
63966;DHT22;50151;52.030;5.350;2022-09-03T22:51:45;19.10;63.50
63966;DHT22;50151;52.030;5.350;2022-09-03T22:57:21;19.10;63.80
63966;DHT22;50151;52.030;5.350;2022-09-03T23:02:25;19.10;63.40
63966;DHT22;50151;52.030;5.350;2022-09-03T23:05:18;19.10;63.90
63966;DHT22;50151;52.030;5.350;2022-09-03T23:08:07;19.10;63.90
63966;DHT22;50151;52.030;5.350;2022-09-03T23:14:32;19.00;64.30
63966;DHT22;50151;52.030;5.350;2022-09-03T23:16:38;19.00;64.00
63966;DHT22;50151;52.030;5.350;2022-09-03T23:19:25;19.00;64.00
63966;DHT22;50151;52.030;5.350;2022-09-03T23:21:59;19.10;64.00
63966;DHT22;50151;52.030;5.350;2022-09-03T23:27:24;19.00;64.00
63966;DHT22;50151;52.030;5.350;2022-09-03T23:29:56;18.90;64.30
63966;DHT22;50151;52.030;5.350;2022-09-03T23:32:24;18.90;64.20
63966;DHT22;50151;52.030;5.350;2022-09-03T23:34:58;19.00;64.20
63966;DHT22;50151;52.030;5.350;2022-09-03T23:40:25;18.80;64.80
63966;DHT22;50151;52.030;5.350;2022-09-03T23:43:16;18.80;64.80
63966;DHT22;50151;52.030;5.350;2022-09-03T23:46:02;18.90;64.70
63966;DHT22;50151;52.030;5.350;2022-09-03T23:54:30;18.70;65.40
63966;DHT22;50151;52.030;5.350;2022-09-03T23:57:22;18.70;65.20
